Time;durP1;ratioP1;P1;durP2;ratioP2;P2;SDS_P1;SDS_P2;PMS_P1;PMS_P2;Temp;Humidity;BMP_temperature;BMP_pressure;BME280_temperature;BME280_humidity;BME280_pressure;Samples;Min_cycle;Max_cycle;Signal;HPM_P1;HPM_P2
2021/08/10 00:02:11;;;;;;;21.20;18.25;;;;;;;20.24;79.86;94947.98;1680632;84;21058;-55
2021/08/10 00:04:38;;;;;;;19.65;17.55;;;;;;;20.23;80.02;94951.27;1681137;84;21115;-55
2021/08/10 00:07:07;;;;;;;20.68;16.30;;;;;;;20.20;80.13;94946.69;1677977;84;21408;-55
2021/08/10 00:09:33;;;;;;;17.23;14.63;;;;;;;20.14;80.23;94943.88;1670463;84;21015;-54
2021/08/10 00:12:00;;;;;;;17.17;15.35;;;;;;;20.10;80.32;94944.63;1679282;84;21094;-54
2021/08/10 00:14:27;;;;;;;20.92;16.40;;;;;;;20.07;80.55;94943.60;1681641;84;21075;-56
2021/08/10 00:16:55;;;;;;;17.67;15.78;;;;;;;20.05;80.67;94941.95;1679674;84;21184;-54
2021/08/10 00:19:22;;;;;;;21.95;18.32;;;;;;;20.02;80.75;94938.77;1680526;84;20952;-55
2021/08/10 00:21:50;;;;;;;19.17;16.85;;;;;;;19.99;80.74;94941.77;1680897;84;20951;-53
2021/08/10 00:24:16;;;;;;;18.40;15.55;;;;;;;19.94;80.95;94936.28;1680216;84;21046;-53
2021/08/10 00:26:43;;;;;;;21.20;14.28;;;;;;;19.90;81.05;94935.77;1680187;84;21081;-55
2021/08/10 00:29:10;;;;;;;21.23;16.60;;;;;;;19.89;81.14;94941.23;1678029;84;21248;-55
2021/08/10 00:31:37;;;;;;;21.82;17.20;;;;;;;19.86;81.30;94938.66;1676453;84;21110;-54
2021/08/10 00:34:05;;;;;;;19.12;16.32;;;;;;;19.84;81.41;94935.62;1680834;84;21003;-54
2021/08/10 00:36:35;;;;;;;18.80;16.90;;;;;;;19.83;81.50;94938.28;1681101;84;20993;-53
2021/08/10 00:39:08;;;;;;;16.40;14.40;;;;;;;19.82;81.59;94930.55;1678183;84;21003;-55
2021/08/10 00:41:36;;;;;;;18.73;16.07;;;;;;;19.85;81.56;94928.14;1660399;84;21824;-54
2021/08/10 00:44:06;;;;;;;19.50;16.07;;;;;;;19.86;81.60;94933.86;1682639;84;21134;-54
2021/08/10 00:46:32;;;;;;;19.32;16.82;;;;;;;19.90;81.62;94932.98;1677691;84;21590;-54
2021/08/10 00:49:01;;;;;;;20.70;16.97;;;;;;;19.94;81.61;94928.55;1679649;84;21022;-55
2021/08/10 00:51:30;;;;;;;22.48;16.10;;;;;;;20.00;81.75;94926.53;1679991;84;21004;-54
2021/08/10 00:53:59;;;;;;;16.27;14.47;;;;;;;20.05;81.51;94927.98;1680433;84;21172;-55
2021/08/10 00:56:26;;;;;;;21.17;16.67;;;;;;;20.11;81.13;94928.00;1655627;84;21041;-54
2021/08/10 00:58:54;;;;;;;17.32;15.28;;;;;;;20.11;80.74;94932.94;1678749;84;21065;-55
2021/08/10 01:01:21;;;;;;;18.67;16.77;;;;;;;20.11;80.75;94927.35;1677144;84;21478;-54
2021/08/10 01:03:48;;;;;;;18.73;16.05;;;;;;;20.11;80.99;94926.60;1646825;86;20967;-54
2021/08/10 01:06:26;;;;;;;16.90;14.68;;;;;;;20.10;81.14;94924.43;1681769;84;21130;-54
2021/08/10 01:09:10;;;;;;;18.17;16.23;;;;;;;20.07;80.98;94922.65;1646404;85;20975;-54
2021/08/10 01:12:04;;;;;;;22.37;17.20;;;;;;;20.02;80.97;94918.44;1675792;84;21019;-54
2021/08/10 01:14:48;;;;;;;21.87;17.55;;;;;;;19.93;81.20;94919.40;1677287;84;21068;-53
2021/08/10 01:17:26;;;;;;;24.23;17.48;;;;;;;19.84;81.47;94917.47;1677429;84;21057;-53
2021/08/10 01:20:21;;;;;;;21.75;16.40;;;;;;;19.75;81.73;94916.30;1679517;83;21189;-53
2021/08/10 01:22:52;;;;;;;17.23;15.25;;;;;;;19.70;81.99;94913.62;1646011;86;21047;-54
2021/08/10 01:25:39;;;;;;;21.30;17.48;;;;;;;19.64;82.13;94912.84;1619192;87;21137;-54
2021/08/10 01:28:36;;;;;;;21.00;17.45;;;;;;;19.62;82.46;94909.79;1624053;87;21059;-53
2021/08/10 01:31:15;;;;;;;24.35;19.82;;;;;;;19.64;82.58;94913.46;1617710;86;21554;-55
2021/08/10 01:33:46;;;;;;;23.07;16.95;;;;;;;19.60;82.68;94915.08;1626797;87;21242;-55
2021/08/10 01:36:13;;;;;;;21.12;17.55;;;;;;;19.59;82.69;94919.79;1631306;87;21565;-54
2021/08/10 01:38:43;;;;;;;22.30;16.77;;;;;;;19.57;82.74;94920.92;1630780;87;21088;-54
2021/08/10 01:41:12;;;;;;;24.87;19.98;;;;;;;19.56;83.02;94923.59;1679946;83;21076;-53
2021/08/10 01:43:41;;;;;;;25.85;20.00;;;;;;;19.58;83.04;94928.78;1677135;84;21077;-53
2021/08/10 01:46:09;;;;;;;25.23;20.92;;;;;;;19.59;83.13;94923.33;1679932;84;21151;-54
2021/08/10 01:48:37;;;;;;;24.05;20.02;;;;;;;19.61;83.08;94925.63;1680351;84;21020;-54
2021/08/10 01:51:06;;;;;;;21.90;17.95;;;;;;;19.63;83.07;94932.25;1656221;85;21051;-54
2021/08/10 01:53:33;;;;;;;27.32;18.80;;;;;;;19.62;83.16;94923.75;1679229;84;21442;-55
2021/08/10 01:56:01;;;;;;;27.35;20.95;;;;;;;19.61;83.17;94934.78;1680879;84;20974;-54
2021/08/10 01:58:30;;;;;;;27.90;20.68;;;;;;;19.62;83.26;94926.54;1647196;86;21172;-55
2021/08/10 02:00:57;;;;;;;25.50;22.48;;;;;;;19.60;83.45;94924.11;1679438;84;21027;-54
2021/08/10 02:03:26;;;;;;;29.02;21.17;;;;;;;19.59;83.57;94920.54;1680865;84;21015;-54
2021/08/10 02:05:58;;;;;;;28.12;21.93;;;;;;;19.59;83.69;94922.58;1676655;84;21042;-54
2021/08/10 02:08:28;;;;;;;26.65;22.20;;;;;;;19.61;83.84;94922.84;1676801;84;21149;-54
2021/08/10 02:10:57;;;;;;;30.08;24.55;;;;;;;19.60;83.73;94916.48;1678490;84;21232;-53
2021/08/10 02:13:27;;;;;;;31.05;26.07;;;;;;;19.59;83.82;94920.54;1677704;84;21577;-53
2021/08/10 02:15:54;;;;;;;31.77;24.40;;;;;;;19.59;83.82;94921.94;1678987;84;21074;-54
2021/08/10 02:18:22;;;;;;;31.93;26.17;;;;;;;19.59;83.73;94927.52;1680382;84;21129;-53
2021/08/10 02:21:01;;;;;;;28.27;23.25;;;;;;;19.58;83.71;94930.83;1668836;84;21007;-54
2021/08/10 02:23:29;;;;;;;30.52;22.48;;;;;;;19.58;83.80;94932.97;1680566;84;21083;-54
2021/08/10 02:25:56;;;;;;;26.60;22.73;;;;;;;19.60;83.94;94924.86;1682114;84;21568;-54
2021/08/10 02:28:24;;;;;;;28.05;22.13;;;;;;;19.60;84.09;94923.45;1669114;85;20956;-55
2021/08/10 02:30:53;;;;;;;29.40;25.27;;;;;;;19.61;84.16;94928.42;1679684;84;21078;-53
2021/08/10 02:33:23;;;;;;;39.33;24.55;;;;;;;19.62;84.25;94923.75;1679262;84;21185;-54
2021/08/10 02:35:54;;;;;;;27.73;22.02;;;;;;;19.67;84.13;94931.99;1681015;84;21184;-55
2021/08/10 02:38:22;;;;;;;;;;;;;;;19.70;83.98;94928.22;1682796;84;21042;-53
2021/08/10 02:40:51;;;;;;;33.42;23.47;;;;;;;19.73;83.97;94934.95;1678632;84;20205;-53
2021/08/10 02:43:18;;;;;;;30.17;23.57;;;;;;;19.72;83.89;94929.88;1677681;84;21074;-54
2021/08/10 02:45:46;;;;;;;31.23;24.00;;;;;;;19.68;83.87;94931.50;1644459;86;21550;-54
2021/08/10 02:48:15;;;;;;;29.23;24.20;;;;;;;19.68;83.94;94927.31;1628023;87;21165;-53
2021/08/10 02:50:43;;;;;;;30.00;22.42;;;;;;;19.68;83.93;94932.90;1633308;87;21542;-54
2021/08/10 02:53:09;;;;;;;32.25;22.40;;;;;;;19.69;83.86;94933.65;1634721;87;21063;-54
2021/08/10 02:55:41;;;;;;;32.78;23.77;;;;;;;19.66;83.90;94929.84;1625818;87;21044;-54
2021/08/10 02:58:11;;;;;;;34.03;24.77;;;;;;;19.66;84.10;94928.45;1634296;87;21079;-54
2021/08/10 03:01:01;;;;;;;32.53;24.52;;;;;;;19.67;84.21;94932.77;1627742;87;21202;-53
2021/08/10 03:03:31;;;;;;;26.30;23.38;;;;;;;19.65;84.25;94923.36;1624758;87;21032;-54
2021/08/10 03:06:02;;;;;;;31.68;22.52;;;;;;;19.62;84.45;94923.75;1630103;87;20996;-54
2021/08/10 03:08:32;;;;;;;27.58;22.58;;;;;;;19.64;84.49;94927.42;1633744;87;21073;-55
2021/08/10 03:10:59;;;;;;;30.55;22.58;;;;;;;19.68;84.62;94927.94;1634050;87;21028;-54
2021/08/10 03:13:30;;;;;;;25.20;21.33;;;;;;;19.76;84.49;94929.00;1635080;87;21139;-53
2021/08/10 03:15:57;;;;;;;24.57;19.57;;;;;;;19.82;84.12;94924.19;1632664;87;21019;-54
2021/08/10 03:18:29;;;;;;;22.98;18.40;;;;;;;19.87;83.87;94931.20;1621454;87;21118;-55
2021/08/10 03:20:59;;;;;;;23.90;19.90;;;;;;;19.90;83.73;94923.20;1620287;87;21089;-53
2021/08/10 03:23:31;;;;;;;25.85;19.60;;;;;;;19.93;83.51;94929.17;1617451;87;21159;-55
2021/08/10 03:25:58;;;;;;;22.70;19.12;;;;;;;19.95;83.46;94929.44;1604328;87;21111;-54
2021/08/10 03:28:26;;;;;;;24.35;18.25;;;;;;;19.96;83.38;94928.16;1682388;85;21064;-55
2021/08/10 03:30:56;;;;;;;20.32;16.30;;;;;;;19.93;83.44;94927.03;1680870;84;21031;-53
2021/08/10 03:33:29;;;;;;;25.43;18.00;;;;;;;19.90;83.54;94926.00;1678059;84;20977;-53
2021/08/10 03:35:57;;;;;;;26.35;20.32;;;;;;;19.89;83.67;94925.12;1680796;84;21089;-54
2021/08/10 03:38:24;;;;;;;24.10;20.08;;;;;;;19.88;83.84;94932.72;1682683;84;21474;-53
2021/08/10 03:40:52;;;;;;;26.70;20.17;;;;;;;19.90;83.87;94930.83;1679651;84;21000;-54
2021/08/10 03:43:20;;;;;;;26.12;18.82;;;;;;;19.88;83.96;94935.52;1678656;84;20979;-54
2021/08/10 03:45:52;;;;;;;22.40;16.90;;;;;;;19.90;83.94;94927.39;1646287;86;21043;-55
2021/08/10 03:48:20;;;;;;;22.00;17.42;;;;;;;19.91;83.99;94931.71;1629859;87;21046;-55
2021/08/10 03:50:49;;;;;;;26.42;19.05;;;;;;;19.91;84.04;94931.71;1628806;87;21178;-55
2021/08/10 03:53:18;;;;;;;24.25;20.10;;;;;;;19.89;84.24;94928.66;1679355;84;21051;-56
2021/08/10 03:55:47;;;;;;;26.45;20.02;;;;;;;19.90;84.42;94925.25;1678739;84;21099;-54
2021/08/10 03:58:14;;;;;;;23.95;18.95;;;;;;;19.90;84.55;94921.06;1679647;84;21031;-54
2021/08/10 04:00:41;;;;;;;21.37;17.32;;;;;;;19.87;84.72;94925.61;1679482;84;21003;-55
2021/08/10 04:03:10;;;;;;;21.90;17.07;;;;;;;19.84;85.09;94922.43;1681101;84;21487;-55
2021/08/10 04:05:39;;;;;;;23.65;18.62;;;;;;;19.86;85.20;94929.67;1681139;84;21026;-55
2021/08/10 04:08:10;;;;;;;21.57;19.23;;;;;;;19.87;85.24;94932.59;1643621;86;21179;-55
2021/08/10 04:10:41;;;;;;;21.52;18.82;;;;;;;19.86;85.11;94919.90;1647496;86;21078;-53
2021/08/10 04:13:10;;;;;;;20.23;17.00;;;;;;;19.87;85.32;94928.40;1629182;87;21140;-56
2021/08/10 04:15:40;;;;;;;22.42;17.40;;;;;;;19.94;85.11;94930.70;1678493;84;21110;-53
2021/08/10 04:18:20;;;;;;;25.55;18.92;;;;;;;20.01;84.76;94931.63;1676775;84;21555;-55
2021/08/10 04:20:48;;;;;;;22.27;18.82;;;;;;;20.07;84.57;94926.84;1678351;84;20996;-55
2021/08/10 04:23:15;;;;;;;26.15;19.92;;;;;;;20.12;84.32;94933.72;1677769;84;21558;-55
2021/08/10 04:25:44;;;;;;;23.27;17.75;;;;;;;20.16;84.06;94935.00;1681767;84;20948;-55
2021/08/10 04:28:12;;;;;;;26.27;18.37;;;;;;;20.23;83.73;94934.50;1677136;84;21103;-55
2021/08/10 04:30:40;;;;;;;27.17;20.62;;;;;;;20.29;83.50;94933.87;1679272;84;21070;-55
2021/08/10 04:33:08;;;;;;;22.90;18.85;;;;;;;20.35;83.35;94936.05;1645636;86;21038;-55
2021/08/10 04:35:35;;;;;;;25.12;18.42;;;;;;;20.38;83.08;94938.59;1597036;87;21069;-57
2021/08/10 04:38:02;;;;;;;21.17;18.02;;;;;;;20.42;82.89;94939.74;1618915;87;21249;-55
2021/08/10 04:40:30;;;;;;;20.45;16.80;;;;;;;20.43;82.80;94941.27;1624960;87;21158;-55
2021/08/10 04:43:08;;;;;;;19.45;16.27;;;;;;;20.43;82.75;94948.25;1617704;87;21645;-55
2021/08/10 04:45:39;;;;;;;21.55;17.77;;;;;;;20.44;82.78;94944.19;1592314;88;21125;-55
2021/08/10 04:48:08;;;;;;;25.97;18.32;;;;;;;20.43;82.73;94937.85;1605054;88;21507;-55
2021/08/10 04:50:36;;;;;;;24.92;18.60;;;;;;;20.41;82.87;94938.22;1618251;88;21091;-56
2021/08/10 04:53:05;;;;;;;24.27;19.10;;;;;;;20.39;82.97;94937.31;1591311;88;20991;-54
2021/08/10 04:55:32;;;;;;;22.87;16.97;;;;;;;20.41;82.89;94945.95;1598920;88;21468;-55
2021/08/10 04:57:59;;;;;;;20.10;17.15;;;;;;;20.42;82.85;94941.91;1607714;88;21148;-55
2021/08/10 05:00:29;;;;;;;22.90;18.32;;;;;;;20.45;83.14;94951.30;1633001;85;21096;-56
2021/08/10 05:02:56;;;;;;;27.30;19.62;;;;;;;20.47;83.06;94947.36;1629528;87;21469;-55
2021/08/10 05:05:24;;;;;;;28.75;19.87;;;;;;;20.49;82.88;94949.02;1629994;85;20981;-55
2021/08/10 05:07:54;;;;;;;52.23;20.48;;;;;;;20.51;82.82;94949.27;1619402;86;21022;-55
2021/08/10 05:10:21;;;;;;;41.05;19.42;;;;;;;20.51;82.80;94943.67;1637588;84;20989;-56
2021/08/10 05:12:51;;;;;;;32.15;19.87;;;;;;;20.55;82.64;94952.59;1640717;87;21505;-56
2021/08/10 05:15:21;;;;;;;43.00;21.50;;;;;;;20.59;82.61;94952.45;1640683;85;20946;-55
2021/08/10 05:17:48;;;;;;;27.27;20.72;;;;;;;20.65;82.58;94953.24;1640715;87;21085;-55
2021/08/10 05:20:15;;;;;;;29.52;20.88;;;;;;;20.69;82.41;94948.78;1633681;85;21532;-56
2021/08/10 05:22:44;;;;;;;29.42;19.20;;;;;;;20.73;82.09;94951.45;1640692;85;21109;-58
2021/08/10 05:25:13;;;;;;;39.40;19.35;;;;;;;20.79;81.72;94950.84;1628924;86;21064;-57
2021/08/10 05:27:40;;;;;;;28.02;19.35;;;;;;;20.85;81.53;94955.05;1640987;87;21029;-56
2021/08/10 05:30:11;;;;;;;27.48;19.62;;;;;;;20.92;81.32;94957.35;1627586;85;21077;-57
2021/08/10 05:32:39;;;;;;;29.80;20.80;;;;;;;21.00;81.10;94952.75;1686809;84;21590;-55
2021/08/10 05:35:08;;;;;;;25.72;19.07;;;;;;;21.09;80.85;94956.06;1673508;84;21565;-55
2021/08/10 05:37:36;;;;;;;25.82;19.02;;;;;;;21.21;80.24;94951.20;1691150;84;21078;-56
2021/08/10 05:40:05;;;;;;;31.77;18.92;;;;;;;21.32;79.93;94947.75;1665111;84;21125;-55
2021/08/10 05:42:32;;;;;;;22.95;17.90;;;;;;;21.41;79.10;94943.91;1646978;85;21898;-55
2021/08/10 05:45:01;;;;;;;23.73;18.95;;;;;;;21.51;78.65;94948.72;1695643;83;21013;-56
2021/08/10 05:47:28;;;;;;;22.87;17.67;;;;;;;21.61;78.16;94953.41;1674791;83;21084;-55
2021/08/10 05:49:56;;;;;;;24.70;16.40;;;;;;;21.71;77.52;94950.48;1679148;83;21093;-57
2021/08/10 05:52:24;;;;;;;24.05;16.67;;;;;;;21.80;76.96;94944.62;1691180;83;21038;-55
2021/08/10 05:54:51;;;;;;;25.57;17.32;;;;;;;21.85;76.55;94949.42;1682052;83;23345;-56
2021/08/10 05:57:19;;;;;;;22.07;15.25;;;;;;;21.90;75.94;94942.41;1672412;83;21148;-59
2021/08/10 05:59:46;;;;;;;21.02;16.42;;;;;;;21.97;75.40;94935.48;1677276;83;21011;-57
2021/08/10 06:02:14;;;;;;;20.50;17.00;;;;;;;22.02;75.17;94931.91;1660069;83;21089;-57
2021/08/10 06:04:40;;;;;;;22.48;15.23;;;;;;;22.05;74.64;94930.98;1672606;83;21027;-57
2021/08/10 06:07:08;;;;;;;21.62;15.05;;;;;;;22.09;74.31;94937.08;1674697;83;21102;-57
2021/08/10 06:09:37;;;;;;;22.25;15.88;;;;;;;22.10;73.84;94930.19;1676466;83;21050;-58
2021/08/10 06:12:06;;;;;;;22.25;16.75;;;;;;;22.11;73.47;94925.36;1663915;83;21051;-57
2021/08/10 06:14:35;;;;;;;22.27;16.17;;;;;;;22.09;73.55;94917.45;1670059;83;21101;-55
2021/08/10 06:17:02;;;;;;;20.23;17.00;;;;;;;22.16;73.08;94919.73;1675596;83;21382;-58
2021/08/10 06:19:29;;;;;;;26.40;16.27;;;;;;;22.19;72.74;94921.49;1666865;83;21158;-59
2021/08/10 06:21:56;;;;;;;16.32;14.23;;;;;;;22.28;72.42;94925.37;1660894;83;21083;-57
2021/08/10 06:24:27;;;;;;;17.75;15.50;;;;;;;22.40;71.88;94922.66;1672843;83;21477;-56
2021/08/10 06:27:04;;;;;;;19.42;14.25;;;;;;;22.47;71.93;94920.70;1674725;83;21073;-55
2021/08/10 06:29:32;;;;;;;19.67;15.30;;;;;;;22.55;71.41;94921.67;1670841;83;21127;-56
2021/08/10 06:32:01;;;;;;;25.23;16.42;;;;;;;22.61;71.00;94923.79;1676479;83;21490;-56
2021/08/10 06:34:28;;;;;;;20.20;15.55;;;;;;;22.61;70.79;94925.19;1677548;83;21221;-55
2021/08/10 06:36:56;;;;;;;22.80;15.55;;;;;;;22.60;70.72;94923.67;1668135;83;21078;-58
2021/08/10 06:39:25;;;;;;;20.75;15.05;;;;;;;22.65;71.01;94935.48;1668631;83;22164;-58
2021/08/10 06:41:54;;;;;;;18.27;16.10;;;;;;;22.72;70.64;94926.53;1674988;84;21053;-54
2021/08/10 06:44:24;;;;;;;22.20;16.93;;;;;;;22.78;70.56;94918.81;1671908;83;21178;-57
2021/08/10 06:46:53;;;;;;;24.70;16.80;;;;;;;22.89;70.51;94927.16;1679321;83;21046;-62
2021/08/10 06:49:21;;;;;;;22.35;15.70;;;;;;;22.99;70.15;94926.19;1682136;83;21065;-57
2021/08/10 06:51:49;;;;;;;25.65;16.02;;;;;;;23.03;69.42;94924.59;1678156;83;21590;-56
2021/08/10 06:54:17;;;;;;;23.83;16.05;;;;;;;23.07;69.55;94914.48;1669982;83;21457;-61
2021/08/10 06:56:51;;;;;;;24.13;15.63;;;;;;;23.07;69.15;94921.51;1671345;83;21066;-56
2021/08/10 06:59:28;;;;;;;21.68;16.25;;;;;;;23.06;69.38;94925.59;1679434;83;21011;-54
2021/08/10 07:01:59;;;;;;;19.42;14.98;;;;;;;23.06;69.30;94915.12;1681240;83;22253;-56
2021/08/10 07:04:30;;;;;;;21.35;14.98;;;;;;;23.11;68.52;94919.97;1668225;83;21568;-58
2021/08/10 07:07:01;;;;;;;21.87;16.30;;;;;;;23.16;67.99;94914.16;1678278;83;21037;-58
2021/08/10 07:09:28;;;;;;;22.73;17.60;;;;;;;23.19;68.09;94917.34;1670807;83;21114;-56
2021/08/10 07:11:56;;;;;;;22.95;13.58;;;;;;;23.25;68.04;94909.00;1659497;83;21092;-57
2021/08/10 07:14:23;;;;;;;16.25;13.15;;;;;;;23.33;67.07;94908.52;1664150;83;21233;-63
2021/08/10 07:16:50;;;;;;;19.25;14.68;;;;;;;23.38;66.44;94907.69;1667734;83;21885;-59
2021/08/10 07:19:17;;;;;;;18.10;14.10;;;;;;;23.44;66.66;94909.82;1679318;83;21066;-57
2021/08/10 07:21:45;;;;;;;17.42;14.83;;;;;;;23.50;65.98;94906.92;1675113;83;21158;-56
2021/08/10 07:24:19;;;;;;;16.90;13.72;;;;;;;23.52;66.50;94911.37;1680028;83;20998;-59
2021/08/10 07:26:45;;;;;;;17.65;14.47;;;;;;;23.57;66.27;94907.76;1681089;83;21128;-56
2021/08/10 07:29:13;;;;;;;17.02;14.47;;;;;;;23.60;66.01;94905.30;1686700;83;21414;-58
2021/08/10 07:31:40;;;;;;;18.92;13.83;;;;;;;23.66;65.54;94902.55;1689134;83;21054;-57
2021/08/10 07:34:12;;;;;;;16.13;13.23;;;;;;;23.76;65.07;94898.72;1679862;83;22484;-55
2021/08/10 07:36:42;;;;;;;18.30;13.65;;;;;;;23.86;64.27;94894.27;1672606;84;20998;-54
2021/08/10 07:39:09;;;;;;;15.58;12.25;;;;;;;23.94;64.10;94900.17;1660663;83;21123;-60
2021/08/10 07:41:36;;;;;;;16.02;13.25;;;;;;;24.01;63.96;94896.77;1673340;84;21046;-60
2021/08/10 07:44:07;;;;;;;19.37;14.90;;;;;;;24.02;63.56;94895.48;1679220;83;21311;-57
2021/08/10 07:46:37;;;;;;;19.27;14.07;;;;;;;24.06;64.04;94885.43;1675126;84;21177;-59
2021/08/10 07:49:04;;;;;;;16.50;12.30;;;;;;;24.17;63.79;94892.98;1672205;83;21181;-56
2021/08/10 07:51:31;;;;;;;17.42;13.72;;;;;;;24.29;63.18;94885.26;1680573;83;21115;-55
2021/08/10 07:53:58;;;;;;;15.75;13.68;;;;;;;24.41;63.07;94888.67;1673998;83;21070;-59
2021/08/10 07:56:25;;;;;;;20.15;12.43;;;;;;;24.50;62.90;94891.08;1681791;83;21124;-57
2021/08/10 07:58:52;;;;;;;14.93;11.88;;;;;;;24.54;62.40;94884.55;1657185;83;21525;-59
2021/08/10 08:01:20;;;;;;;15.85;12.73;;;;;;;24.55;62.08;94886.06;1686657;83;21147;-55
2021/08/10 08:03:47;;;;;;;15.18;11.85;;;;;;;24.55;61.70;94884.66;1682802;83;21051;-58
2021/08/10 08:06:14;;;;;;;16.77;11.65;;;;;;;24.55;62.56;94885.40;1666969;83;20989;-60
2021/08/10 08:08:43;;;;;;;17.20;13.08;;;;;;;24.55;62.52;94887.47;1684736;83;21475;-58
2021/08/10 08:11:13;;;;;;;20.23;12.90;;;;;;;24.55;61.51;94881.84;1663664;83;21223;-58
2021/08/10 08:13:40;;;;;;;17.05;13.40;;;;;;;24.57;61.69;94884.88;1682405;83;21109;-62
2021/08/10 08:16:09;;;;;;;11.93;10.60;;;;;;;24.63;61.66;94877.09;1671707;85;21064;-60
2021/08/10 08:18:37;;;;;;;17.10;12.73;;;;;;;24.70;60.78;94877.23;1677207;83;21077;-66
2021/08/10 08:21:05;;;;;;;15.40;12.85;;;;;;;24.72;60.93;94878.86;1676451;83;21228;-58
2021/08/10 08:23:34;;;;;;;19.40;13.48;;;;;;;24.75;60.95;94874.23;1673359;83;21202;-59
2021/08/10 08:26:03;;;;;;;16.30;12.25;;;;;;;24.80;61.07;94879.77;1669107;83;21681;-58
2021/08/10 08:28:33;;;;;;;16.60;11.93;;;;;;;24.84;60.57;94868.18;1664005;84;21097;-54
2021/08/10 08:31:01;;;;;;;13.88;11.57;;;;;;;24.89;60.70;94862.46;1683576;83;21123;-61
2021/08/10 08:33:29;;;;;;;14.80;11.95;;;;;;;24.93;59.95;94867.12;1673969;83;21093;-55
2021/08/10 08:35:56;;;;;;;14.05;11.45;;;;;;;24.98;60.31;94864.11;1675273;83;21034;-57
2021/08/10 08:38:23;;;;;;;18.00;11.95;;;;;;;25.02;60.47;94865.95;1676461;83;22609;-56
2021/08/10 08:40:53;;;;;;;15.70;11.53;;;;;;;25.11;60.13;94866.95;1686377;83;21051;-58
2021/08/10 08:43:22;;;;;;;16.52;10.93;;;;;;;25.21;59.37;94865.25;1687630;83;21090;-57
2021/08/10 08:45:50;;;;;;;18.40;10.65;;;;;;;25.23;59.56;94864.06;1688347;83;21191;-57
2021/08/10 08:48:17;;;;;;;11.35;9.83;;;;;;;25.24;59.55;94861.36;1665353;83;21126;-58
2021/08/10 08:50:46;;;;;;;11.97;10.35;;;;;;;25.27;59.99;94856.08;1667854;84;21554;-59
2021/08/10 08:53:15;;;;;;;13.03;11.03;;;;;;;25.35;60.13;94859.75;1662355;84;21558;-56
2021/08/10 08:55:46;;;;;;;14.10;11.40;;;;;;;25.49;59.37;94857.05;1661780;83;21382;-56
2021/08/10 08:58:15;;;;;;;13.05;9.90;;;;;;;25.59;59.61;94858.13;1674126;84;21523;-57
2021/08/10 09:00:43;;;;;;;14.18;10.82;;;;;;;25.70;59.37;94857.91;1679728;83;21805;-57
2021/08/10 09:03:10;;;;;;;13.62;11.10;;;;;;;25.73;58.48;94855.41;1663962;83;21082;-57
2021/08/10 09:05:45;;;;;;;14.43;11.20;;;;;;;25.71;59.11;94858.02;1679526;83;21097;-55
2021/08/10 09:08:32;;;;;;;16.35;11.03;;;;;;;25.79;58.91;94865.91;1668412;83;21140;-58
2021/08/10 09:11:05;;;;;;;17.52;10.88;;;;;;;25.84;57.91;94856.61;1668517;83;21091;-57
2021/08/10 09:13:33;;;;;;;14.25;9.78;;;;;;;25.84;58.12;94853.14;1629711;87;21152;-57
2021/08/10 09:16:06;;;;;;;12.33;10.30;;;;;;;25.88;57.29;94852.83;1621110;86;21066;-55
2021/08/10 09:18:37;;;;;;;14.78;11.43;;;;;;;25.88;57.45;94852.83;1645789;84;21719;-59
2021/08/10 09:21:10;;;;;;;15.00;10.75;;;;;;;25.93;57.71;94850.53;1646092;85;21071;-59
2021/08/10 09:23:48;;;;;;;13.72;10.10;;;;;;;26.05;57.81;94853.97;1634047;85;21030;-59
2021/08/10 09:26:25;;;;;;;12.28;10.05;;;;;;;26.14;57.22;94854.95;1651353;85;21812;-56
2021/08/10 09:28:58;;;;;;;17.02;10.98;;;;;;;26.25;58.15;94853.27;1673556;83;21023;-55
2021/08/10 09:31:46;;;;;;;12.33;10.18;;;;;;;26.35;57.22;94855.11;1666488;83;21031;-55
2021/08/10 09:34:27;;;;;;;16.30;10.40;;;;;;;26.41;56.28;94849.31;1682470;84;21050;-58
2021/08/10 09:36:55;;;;;;;12.10;10.30;;;;;;;26.47;57.14;94847.88;1680590;83;21507;-56
2021/08/10 09:39:31;;;;;;;14.28;10.25;;;;;;;26.56;56.66;94845.28;1671554;83;21076;-56
2021/08/10 09:42:10;;;;;;;15.23;10.45;;;;;;;26.63;56.54;94849.59;1668421;85;21587;-63
2021/08/10 09:45:02;;;;;;;11.33;9.40;;;;;;;26.69;56.59;94853.02;1670127;84;21909;-57
2021/08/10 09:47:35;;;;;;;14.33;9.45;;;;;;;26.78;56.45;94850.38;1669585;84;21034;-54
2021/08/10 09:50:02;;;;;;;13.75;10.50;;;;;;;26.78;55.61;94856.80;1674005;84;21000;-56
2021/08/10 09:52:32;;;;;;;12.25;9.30;;;;;;;26.74;56.07;94853.57;1679677;83;22218;-56
2021/08/10 09:55:13;;;;;;;10.58;8.75;;;;;;;26.75;55.89;94855.08;1684097;83;21073;-56
2021/08/10 09:58:01;;;;;;;10.43;8.75;;;;;;;26.77;55.65;94853.88;1644205;85;21495;-59
2021/08/10 10:00:42;;;;;;;12.50;9.95;;;;;;;26.77;56.07;94853.88;1676620;83;21045;-57
2021/08/10 10:03:25;;;;;;;12.23;9.63;;;;;;;26.82;56.04;94852.97;1676761;83;21058;-57
2021/08/10 10:05:56;;;;;;;10.95;8.93;;;;;;;26.96;55.80;94854.42;1662532;83;22726;-58
2021/08/10 10:08:25;;;;;;;9.90;8.73;;;;;;;27.13;54.68;94847.72;1672567;83;21498;-54
2021/08/10 10:10:55;;;;;;;12.37;8.30;;;;;;;27.29;54.15;94845.12;1673732;83;21006;-58
2021/08/10 10:13:24;;;;;;;12.95;9.50;;;;;;;27.52;54.25;94843.20;1667647;83;20990;-59
2021/08/10 10:15:52;;;;;;;12.00;8.70;;;;;;;27.78;53.67;94840.17;1658744;83;21024;-57
2021/08/10 10:18:21;;;;;;;13.22;9.78;;;;;;;28.00;52.03;94836.72;1664235;84;21894;-55
2021/08/10 10:20:49;;;;;;;13.70;10.23;;;;;;;28.15;51.85;94841.00;1622075;84;21087;-59
2021/08/10 10:23:25;;;;;;;13.53;9.60;;;;;;;28.34;51.12;94835.81;1674258;84;21026;-55
2021/08/10 10:25:52;;;;;;;10.25;8.70;;;;;;;28.55;51.17;94847.80;1663507;83;21058;-59
2021/08/10 10:28:20;;;;;;;13.08;9.65;;;;;;;28.72;50.44;94846.58;1654176;85;21038;-56
2021/08/10 10:30:49;;;;;;;11.38;9.35;;;;;;;28.95;49.61;94844.58;1679126;84;21082;-56
2021/08/10 10:33:16;;;;;;;11.20;9.48;;;;;;;29.13;49.50;94844.88;1669647;84;20990;-58
2021/08/10 10:35:43;;;;;;;13.60;10.20;;;;;;;29.17;49.91;94838.16;1662184;85;21121;-57
2021/08/10 10:38:09;;;;;;;11.43;9.30;;;;;;;29.27;48.35;94841.92;1665898;85;21105;-59
2021/08/10 10:40:37;;;;;;;14.13;10.35;;;;;;;29.31;49.44;94830.98;1674327;85;21061;-57
2021/08/10 10:43:04;;;;;;;10.88;9.45;;;;;;;29.34;48.63;94832.67;1687158;83;21244;-59
2021/08/10 10:45:39;;;;;;;12.28;9.30;;;;;;;29.38;48.13;94828.79;1680402;83;21055;-59
2021/08/10 10:48:29;;;;;;;11.70;10.03;;;;;;;29.46;47.66;94831.74;1676591;84;21017;-63
2021/08/10 10:51:13;;;;;;;14.95;9.53;;;;;;;29.64;48.40;94831.26;1664900;84;21174;-55
2021/08/10 10:53:43;;;;;;;11.68;9.80;;;;;;;29.88;47.19;94826.36;1667950;84;21592;-60
2021/08/10 10:56:30;;;;;;;13.40;10.18;;;;;;;30.25;47.09;94833.34;1677128;84;22193;-57
2021/08/10 10:59:19;;;;;;;16.40;12.13;;;;;;;30.59;45.73;94826.48;1671796;84;21033;-56
2021/08/10 11:01:46;;;;;;;14.80;10.20;;;;;;;30.82;45.22;94830.70;1675980;84;21056;-57
2021/08/10 11:04:14;;;;;;;14.80;9.63;;;;;;;30.93;44.36;94825.98;1657920;83;21061;-59
2021/08/10 11:06:49;;;;;;;13.32;10.85;;;;;;;30.96;43.59;94837.62;1660655;85;21082;-57
2021/08/10 11:09:47;;;;;;;12.23;7.83;;;;;;;31.08;44.54;94836.48;1668929;85;21780;-56
2021/08/10 11:12:44;;;;;;;10.48;8.48;;;;;;;31.28;43.98;94850.39;1673103;83;21002;-59
2021/08/10 11:15:21;;;;;;;16.67;8.95;;;;;;;31.58;42.72;94844.42;1683554;83;21148;-57
2021/08/10 11:18:12;;;;;;;12.23;8.23;;;;;;;31.82;43.26;94836.52;1679875;83;21042;-61
2021/08/10 11:20:41;;;;;;;10.20;7.90;;;;;;;32.10;42.59;94844.58;1694175;83;21086;-57
2021/08/10 11:23:28;;;;;;;9.63;7.50;;;;;;;32.41;40.76;94837.95;1660405;83;21809;-59
2021/08/10 11:26:08;;;;;;;12.95;8.20;;;;;;;32.62;40.55;94836.81;1684761;83;21630;-55
2021/08/10 11:28:47;;;;;;;11.93;8.15;;;;;;;32.88;39.26;94838.20;1666651;84;21070;-54
2021/08/10 11:31:44;;;;;;;10.80;7.90;;;;;;;33.01;40.35;94842.09;1667622;85;21364;-56
2021/08/10 11:34:32;;;;;;;10.13;7.97;;;;;;;33.29;39.82;94838.66;1677582;83;21595;-57
2021/08/10 11:37:22;;;;;;;8.38;6.97;;;;;;;33.68;38.41;94833.14;1659476;83;21828;-59